Terminal Aerodrome Forecast
Issued by NWS Jackson, MS

Home | Current Version | Previous Version | Text Only | Print | Product List | Glossary On
Versions: 1 2 3 4 5 6 7 8 9 10 11 12 13 14 15
000
FTUS44 KJAN 221700 AAA
TAFGLH
TAF AMD
KGLH 221757Z 2218/2318 16011KT 6SM HZ VCSH OVC010
     FM230000 17010KT P6SM VCTS BKN007 OVC030CB
     FM230600 28006KT 1/2SM FG OVC001
     FM231500 03008KT 1/2SM FG OVC003=

USA.gov is the U.S. government's official web portal to all federal, state and local government web resources and services.